メインページ
METAR-TAF:

METAR-TAF

空港 :

佐賀空港

佐賀, 日本

緯度: 33-09N, 経度: 130-18E, 海抜: 2m

現時点の気象観測

当レポートは53分前の09:00(UTC)に作成
西の風 8kt、南西から西/北西の間で変化する
気温 20°C
湿度 60%
気圧 1008 hPa
視程10km以上
高度4500ftの雲はほとんどない
雲は散在している

METAR: RJFS 240900Z 27008KT 230V300 9999 FEW045 SCT/// 20/12 Q1008

時間: 18:53 (09:53 UTC)

予報

当レポートは4時間42分前の05:11(UTC)に作成
予報は24日の 06時(UTC)から 25日の 12時(UTC)まで有効
北西の風 11kt
視程10km以上
高度3000ftの雲はほとんどない
24日の 18時(UTC)から 24日の 21時(UTC)まで一時的に
視程: 4000m
24日の 21時(UTC)から 25日の 00時(UTC)まで徐々に
の風 8kt
25日の 06時(UTC)から 25日の 09時(UTC)まで徐々に
南/南西の風 6kt

TAF: RJFS 240511Z 2406/2512 31011KT 9999 FEW030 TEMPO 2418/2421 4000 BR BECMG 2421/2500 17008KT BECMG 2506/2509 21006KT

4,000以上の空港の気象観測と天気予報(METAR報とTAF報)

利用可能な観測所は地図上に黄色い丸と赤い丸で示す。

丸の上にカーソルを重ねると観測所名を参照できる。

次にクリックすると気象観測と天気予報を参照できる。

マップの切り替え:黒色「×」印の緑ボタンをクリックして拡大、「-」印の緑ボタンをクリックして縮小、緑色の三角印をクリックして隣りの地図に切り替え


METAR-TAF: